Time;durP1;ratioP1;P1;durP2;ratioP2;P2;SDS_P1;SDS_P2;PMS_P1;PMS_P2;Temp;Humidity;BMP_temperature;BMP_pressure;BME280_temperature;BME280_humidity;BME280_pressure;Samples;Min_cycle;Max_cycle;Signal;HPM_P1;HPM_P2
2022/08/05 00:00:35;;;;;;;31.23;17.77;;;;;;;19.94;94.99;101421.63;5069484;28;20230;-73
2022/08/05 00:03:00;;;;;;;29.63;17.77;;;;;;;19.93;94.90;101424.22;5069351;28;20292;-74
2022/08/05 00:05:26;;;;;;;26.43;16.07;;;;;;;19.93;94.74;101426.81;5074617;28;20180;-74
2022/08/05 00:07:51;;;;;;;31.80;16.60;;;;;;;19.92;94.32;101417.31;5081063;28;20298;-71
2022/08/05 00:10:17;;;;;;;26.93;16.13;;;;;;;19.90;94.46;101419.06;5089496;28;20188;-74
2022/08/05 00:12:42;;;;;;;29.17;16.20;;;;;;;19.83;94.62;101412.19;5089620;28;20196;-74
2022/08/05 00:15:08;;;;;;;27.80;15.33;;;;;;;19.80;94.48;101420.03;5089440;28;20207;-72
2022/08/05 00:17:33;;;;;;;30.07;15.53;;;;;;;19.75;94.86;101427.88;5088539;28;20189;-71
2022/08/05 00:19:59;;;;;;;26.60;13.83;;;;;;;19.75;94.50;101427.88;5089408;28;20181;-74
2022/08/05 00:22:24;;;;;;;26.83;14.93;;;;;;;19.76;94.49;101428.75;5089141;28;20228;-73
2022/08/05 00:24:50;;;;;;;29.50;14.87;;;;;;;19.72;94.68;101433.06;5089368;28;20279;-71
2022/08/05 00:27:15;;;;;;;29.27;15.50;;;;;;;19.67;94.40;101439.22;5088958;28;20279;-74
2022/08/05 00:29:41;;;;;;;27.03;14.93;;;;;;;19.64;94.31;101440.09;5095828;28;20218;-74
2022/08/05 00:32:07;;;;;;;23.50;13.50;;;;;;;19.62;93.96;101435.78;5087633;28;20205;-74
2022/08/05 00:34:33;;;;;;;25.23;14.13;;;;;;;19.59;93.87;101428.88;5089150;28;20673;-72
2022/08/05 00:36:58;;;;;;;26.83;14.33;;;;;;;19.60;93.97;101432.31;5088950;28;20172;-73
2022/08/05 00:39:24;;;;;;;24.53;13.83;;;;;;;19.59;94.00;101422.81;5089078;28;20215;-74
2022/08/05 00:41:49;;;;;;;23.13;12.77;;;;;;;19.55;93.91;101436.69;5104572;28;21042;-72
2022/08/05 00:44:15;;;;;;;26.47;13.27;;;;;;;19.56;93.92;101438.41;5089067;28;20193;-74
2022/08/05 00:46:40;;;;;;;21.80;11.87;;;;;;;19.55;93.63;101442.75;5088662;28;20192;-74
2022/08/05 00:49:05;;;;;;;24.57;12.97;;;;;;;19.54;93.31;101443.66;5088893;28;20219;-74
2022/08/05 00:51:31;;;;;;;20.73;11.83;;;;;;;19.56;93.27;101449.69;5088945;28;20200;-74
2022/08/05 00:53:56;;;;;;;19.50;11.67;;;;;;;19.57;93.09;101447.97;5088995;28;20192;-73
2022/08/05 00:56:22;;;;;;;21.27;11.87;;;;;;;19.56;93.16;101457.47;5104363;28;20193;-74
2022/08/05 00:58:47;;;;;;;18.43;11.43;;;;;;;19.59;93.23;101460.06;5091710;28;20230;-74
2022/08/05 01:01:14;;;;;;;17.63;11.10;;;;;;;19.61;92.95;101466.09;5065041;28;20233;-75
2022/08/05 01:03:40;;;;;;;20.00;11.60;;;;;;;19.57;93.08;101468.75;5053027;28;20209;-73
2022/08/05 01:06:07;;;;;;;19.83;11.00;;;;;;;19.56;92.79;101478.25;5052403;28;20269;-73
2022/08/05 01:08:33;;;;;;;18.03;10.20;;;;;;;19.57;92.76;101486.94;5064062;28;20255;-74
2022/08/05 01:11:05;;;;;;;17.77;10.13;;;;;;;19.53;92.24;101467.88;5079715;28;20215;-74
2022/08/05 01:13:46;;;;;;;14.90;9.40;;;;;;;19.48;92.37;101471.41;5063987;28;20196;-73
2022/08/05 01:16:29;;;;;;;17.83;9.60;;;;;;;19.44;91.87;101467.94;5051429;28;20263;-72
2022/08/05 01:19:02;;;;;;;16.63;9.80;;;;;;;19.42;91.97;101461.91;5051850;28;20277;-74
2022/08/05 01:21:57;;;;;;;15.83;9.43;;;;;;;19.42;92.02;101461.03;5057105;28;20201;-74
2022/08/05 01:24:32;;;;;;;15.00;8.77;;;;;;;19.31;91.50;101461.13;5069339;28;20217;-73
2022/08/05 01:27:00;;;;;;;12.97;7.10;;;;;;;19.32;90.90;101467.16;5069190;28;20579;-74
2022/08/05 01:29:49;;;;;;;13.77;7.50;;;;;;;19.30;90.56;101477.56;5068265;28;20850;-74
2022/08/05 01:32:20;;;;;;;12.03;7.00;;;;;;;19.28;89.94;101476.72;5071558;28;20209;-74
2022/08/05 01:34:57;;;;;;;9.10;6.87;;;;;;;19.30;89.78;101485.34;5053683;28;20216;-74
2022/08/05 01:37:48;;;;;;;11.67;6.83;;;;;;;19.31;89.70;101501.81;5071459;28;20568;-73
2022/08/05 01:40:15;;;;;;;11.70;6.57;;;;;;;19.28;89.40;101489.72;5079119;28;20168;-72
2022/08/05 01:42:43;;;;;;;10.27;6.43;;;;;;;19.24;89.37;101456.81;5054997;28;20212;-74
2022/08/05 01:45:09;;;;;;;13.67;6.57;;;;;;;19.18;89.45;101449.03;5051401;28;20513;-74
2022/08/05 01:47:37;;;;;;;11.27;5.93;;;;;;;19.15;89.19;101433.47;5080253;28;20193;-72
2022/08/05 01:50:13;;;;;;;9.23;5.17;;;;;;;19.09;88.71;101432.66;5057848;28;20193;-74
2022/08/05 01:52:41;;;;;;;9.33;5.47;;;;;;;19.02;88.14;101418.81;5067536;28;20204;-73
2022/08/05 01:55:09;;;;;;;10.10;4.97;;;;;;;19.01;87.46;101421.44;5072009;28;20251;-74
2022/08/05 01:57:39;;;;;;;12.27;4.70;;;;;;;18.97;87.57;101414.56;5067331;28;20272;-74
2022/08/05 02:00:08;;;;;;;8.43;4.40;;;;;;;18.96;87.22;101403.28;5072153;28;20197;-73
2022/08/05 02:02:36;;;;;;;7.67;4.57;;;;;;;18.96;87.93;101384.25;5069561;28;20216;-73
2022/08/05 02:05:06;;;;;;;6.10;3.90;;;;;;;18.97;87.07;101367.81;5062634;28;20287;-73
2022/08/05 02:07:32;;;;;;;9.77;4.40;;;;;;;18.98;87.10;101372.16;5050793;28;20213;-72
2022/08/05 02:09:58;;;;;;;8.10;4.07;;;;;;;18.96;86.60;101386.84;5049981;28;20197;-74
2022/08/05 02:12:43;;;;;;;7.33;4.40;;;;;;;18.95;86.89;101379.94;5066559;28;20205;-72
2022/08/05 02:15:11;;;;;;;4.77;3.63;;;;;;;18.95;87.07;101361.75;5054244;28;20273;-74
2022/08/05 02:18:03;;;;;;;8.60;4.90;;;;;;;18.96;86.88;101359.16;5052187;28;20189;-74
2022/08/05 02:20:52;;;;;;;6.60;4.30;;;;;;;18.95;87.06;101354.84;5050825;28;20170;-74
2022/08/05 02:23:22;;;;;;;7.20;4.30;;;;;;;18.96;86.94;101347.91;5053033;28;20762;-74
2022/08/05 02:25:50;;;;;;;6.43;4.17;;;;;;;18.97;87.02;101352.25;5066966;28;20177;-74
2022/08/05 02:28:22;;;;;;;6.50;4.67;;;;;;;18.96;87.05;101364.34;5054858;28;20279;-74
2022/08/05 02:30:55;;;;;;;6.83;4.80;;;;;;;19.04;86.29;101374.69;5050626;28;20194;-74
2022/08/05 02:33:21;;;;;;;8.33;4.00;;;;;;;18.99;86.90;101372.13;5050706;28;20174;-72
2022/08/05 02:35:49;;;;;;;8.53;4.90;;;;;;;18.98;86.74;101379.94;5050415;28;20217;-72
2022/08/05 02:38:16;;;;;;;6.03;4.30;;;;;;;19.01;86.71;101388.56;5057266;28;20196;-72
2022/08/05 02:40:43;;;;;;;7.50;4.30;;;;;;;19.05;86.82;101408.44;5051588;28;20178;-72
2022/08/05 02:43:14;;;;;;;4.70;4.20;;;;;;;19.05;86.86;101418.81;5055052;28;20206;-73
2022/08/05 02:45:41;;;;;;;7.63;4.33;;;;;;;19.02;87.35;101437.00;5051209;28;20196;-73
2022/08/05 02:48:08;;;;;;;8.83;5.27;;;;;;;19.06;87.68;101448.22;5052207;28;20182;-74
2022/08/05 02:50:36;;;;;;;12.23;5.10;;;;;;;19.04;89.02;101449.97;5049904;28;20197;-74
2022/08/05 02:53:03;;;;;;;8.03;5.50;;;;;;;19.02;90.61;101430.97;5050259;28;20182;-74
2022/08/05 02:55:30;;;;;;;11.43;5.10;;;;;;;18.93;91.28;101428.41;5050080;28;20201;-74
2022/08/05 02:57:58;;;;;;;9.10;5.07;;;;;;;18.89;91.46;101437.09;5050037;28;20192;-73
2022/08/05 03:00:24;;;;;;;9.80;4.70;;;;;;;18.85;91.09;101425.88;5053546;28;20189;-73
2022/08/05 03:02:51;;;;;;;6.83;5.03;;;;;;;18.81;91.93;101412.91;5049787;28;20714;-74
2022/08/05 03:05:18;;;;;;;5.43;4.17;;;;;;;18.89;91.83;101405.94;5049724;28;20189;-73
2022/08/05 03:07:44;;;;;;;11.33;5.53;;;;;;;18.88;91.90;101370.47;5049646;28;20267;-72
2022/08/05 03:10:10;;;;;;;9.90;5.40;;;;;;;18.88;92.10;101344.53;5053295;28;20228;-74
2022/08/05 03:12:37;;;;;;;7.57;5.13;;;;;;;18.81;92.10;101335.03;5049833;28;20641;-74
2022/08/05 03:15:05;;;;;;;9.40;5.07;;;;;;;18.77;91.73;101328.13;5053153;28;20181;-73
2022/08/05 03:17:30;;;;;;;7.17;4.93;;;;;;;18.73;91.81;101327.31;5064649;28;20786;-73
2022/08/05 03:19:56;;;;;;;9.23;5.33;;;;;;;18.72;91.72;101319.53;5044579;28;20309;-73
2022/08/05 03:22:21;;;;;;;12.87;5.93;;;;;;;18.69;92.01;101332.50;5049519;28;20610;-74
2022/08/05 03:24:48;;;;;;;9.77;5.80;;;;;;;18.61;92.73;101334.31;5049896;28;20186;-74
2022/08/05 03:27:14;;;;;;;9.03;5.43;;;;;;;18.56;92.79;101342.09;5067170;28;20190;-72
2022/08/05 03:29:40;;;;;;;8.17;5.70;;;;;;;18.51;93.21;101343.84;5076246;28;20201;-74
2022/08/05 03:32:07;;;;;;;9.07;5.53;;;;;;;18.52;93.66;101347.31;5058005;28;20209;-73
2022/08/05 03:34:33;;;;;;;8.63;5.43;;;;;;;18.49;93.88;101352.50;5049336;28;20197;-72
2022/08/05 03:36:59;;;;;;;7.07;5.20;;;;;;;18.45;94.00;101348.19;5052087;28;20189;-74
2022/08/05 03:39:25;;;;;;;9.03;5.50;;;;;;;18.46;93.84;101360.28;5049536;28;20225;-72
2022/08/05 03:41:50;;;;;;;7.30;5.40;;;;;;;18.45;93.88;101367.22;5049461;28;20237;-74
2022/08/05 03:44:15;;;;;;;8.77;5.00;;;;;;;18.45;93.46;101363.75;5049663;28;20216;-74
2022/08/05 03:46:41;;;;;;;9.50;4.80;;;;;;;18.39;93.22;101364.66;5052797;28;20193;-71
2022/08/05 03:49:06;;;;;;;11.23;5.70;;;;;;;18.43;93.40;101362.91;5051302;28;20188;-74
2022/08/05 03:51:41;;;;;;;8.40;5.37;;;;;;;18.42;93.35;101363.78;5059547;28;20209;-74
2022/08/05 03:54:19;;;;;;;8.97;5.43;;;;;;;18.35;93.74;101380.22;5052598;28;20189;-74
2022/08/05 03:56:46;;;;;;;7.90;5.00;;;;;;;18.37;93.50;101378.50;5048972;28;20227;-74
2022/08/05 03:59:27;;;;;;;8.03;5.17;;;;;;;18.32;93.70;101385.38;5052586;28;20247;-73
2022/08/05 04:01:55;;;;;;;8.27;5.47;;;;;;;18.27;94.14;101395.78;5049165;28;20197;-74
2022/08/05 04:04:22;;;;;;;6.40;4.63;;;;;;;18.27;94.36;101400.97;5048896;28;20194;-72
2022/08/05 04:06:48;;;;;;;7.43;4.70;;;;;;;18.26;93.91;101395.78;5048861;28;20194;-73
2022/08/05 04:09:15;;;;;;;5.83;4.80;;;;;;;18.21;94.30;101390.63;5044758;28;20217;-72
2022/08/05 04:11:41;;;;;;;8.30;4.93;;;;;;;18.09;93.76;101393.25;5048824;28;20304;-73
2022/08/05 04:14:07;;;;;;;9.27;4.87;;;;;;;18.13;93.64;101389.78;5052592;28;20276;-73
2022/08/05 04:16:34;;;;;;;9.03;4.53;;;;;;;18.14;93.21;101388.91;5052502;28;21035;-72
2022/08/05 04:19:00;;;;;;;8.80;4.87;;;;;;;18.13;93.10;101394.09;5049233;28;20251;-74
2022/08/05 04:21:26;;;;;;;11.03;4.77;;;;;;;18.11;92.99;101395.84;5048882;28;20622;-73
2022/08/05 04:23:52;;;;;;;9.93;4.43;;;;;;;18.08;94.00;101390.66;5048889;28;20217;-73
2022/08/05 04:26:17;;;;;;;6.53;5.17;;;;;;;18.05;94.05;101401.03;5048826;28;20185;-74
2022/08/05 04:28:43;;;;;;;11.13;5.20;;;;;;;18.03;94.20;101413.13;5057797;28;20284;-74
2022/08/05 04:31:08;;;;;;;9.90;5.43;;;;;;;18.03;94.25;101423.50;5062967;28;20578;-74
2022/08/05 04:33:34;;;;;;;7.53;4.83;;;;;;;18.02;94.05;101416.59;5064146;28;20185;-73
2022/08/05 04:35:59;;;;;;;9.20;4.83;;;;;;;17.97;94.23;101416.56;5067558;28;20178;-74
2022/08/05 04:38:25;;;;;;;7.70;4.20;;;;;;;17.94;93.89;101426.97;5069300;28;20185;-72
2022/08/05 04:40:50;;;;;;;9.30;4.30;;;;;;;17.93;93.38;101425.25;5063924;28;20663;-73
2022/08/05 04:43:16;;;;;;;10.10;4.73;;;;;;;17.89;93.48;101422.66;5036374;28;20246;-70
2022/08/05 04:45:41;;;;;;;8.00;4.57;;;;;;;17.92;93.33;101420.91;5067192;28;20694;-72
2022/08/05 04:48:09;;;;;;;7.47;4.83;;;;;;;17.90;93.47;101430.44;5072372;28;20721;-74
2022/08/05 04:50:39;;;;;;;5.83;4.00;;;;;;;17.94;93.33;101433.88;5072549;28;20181;-74
2022/08/05 04:53:04;;;;;;;7.03;4.90;;;;;;;17.91;93.17;101437.34;5072739;28;20639;-74
2022/08/05 04:55:29;;;;;;;9.47;5.00;;;;;;;17.86;93.12;101454.63;5073054;28;20236;-73
2022/08/05 04:57:55;;;;;;;6.50;4.17;;;;;;;17.88;93.04;101452.91;5073160;28;20197;-73
2022/08/05 05:00:20;;;;;;;6.30;4.50;;;;;;;17.92;92.76;101462.38;5088297;28;20181;-73
2022/08/05 05:02:46;;;;;;;5.80;4.40;;;;;;;17.91;92.56;101473.63;5072469;28;20205;-72
2022/08/05 05:05:11;;;;;;;5.70;4.20;;;;;;;17.95;92.51;101474.47;5071821;28;20732;-74
2022/08/05 05:07:37;;;;;;;7.67;3.97;;;;;;;17.98;92.31;101480.53;5072779;28;20189;-74
2022/08/05 05:10:04;;;;;;;6.80;4.40;;;;;;;18.01;92.33;101475.34;5073443;28;20199;-74
2022/08/05 05:12:30;;;;;;;7.77;4.37;;;;;;;18.02;92.66;101482.28;5072540;28;20713;-72
2022/08/05 05:14:56;;;;;;;9.27;4.57;;;;;;;18.04;93.26;101500.38;5072887;28;20288;-74
2022/08/05 05:17:21;;;;;;;8.17;4.07;;;;;;;18.03;92.25;101501.25;5071613;28;20185;-74
2022/08/05 05:19:47;;;;;;;6.13;3.87;;;;;;;17.98;92.08;101497.81;5072061;28;20321;-74
2022/08/05 05:22:12;;;;;;;4.80;3.60;;;;;;;18.00;92.06;101504.72;5072260;28;20287;-72
2022/08/05 05:24:38;;;;;;;6.67;4.47;;;;;;;18.03;91.94;101519.41;5072710;28;20749;-73
2022/08/05 05:27:03;;;;;;;7.83;4.10;;;;;;;18.04;92.09;101518.53;5071892;28;20542;-74
2022/08/05 05:29:29;;;;;;;8.30;4.30;;;;;;;18.06;92.85;101512.47;5078215;28;20193;-74
2022/08/05 05:31:55;;;;;;;5.87;4.37;;;;;;;18.04;92.24;101509.03;5088322;28;20235;-73
2022/08/05 05:34:21;;;;;;;9.03;4.50;;;;;;;18.11;92.51;101507.31;5081068;28;20189;-73
2022/08/05 05:36:47;;;;;;;6.90;4.53;;;;;;;18.13;92.19;101498.66;5071384;28;20644;-72
2022/08/05 05:39:12;;;;;;;6.37;4.50;;;;;;;18.13;92.93;101498.66;5071728;28;20177;-73
2022/08/05 05:41:38;;;;;;;7.43;4.30;;;;;;;18.12;92.74;101502.13;5071384;28;20695;-74
2022/08/05 05:44:03;;;;;;;5.83;4.50;;;;;;;18.12;92.44;101502.13;5081442;28;20216;-74
2022/08/05 05:46:29;;;;;;;5.60;4.03;;;;;;;18.12;92.27;101502.13;5072618;28;20212;-74
2022/08/05 05:48:54;;;;;;;7.77;4.20;;;;;;;18.15;92.34;101496.06;5053395;28;20286;-74
2022/08/05 05:51:24;;;;;;;5.97;4.43;;;;;;;18.15;92.60;101498.66;5071236;28;20246;-74
2022/08/05 05:53:52;;;;;;;7.30;4.93;;;;;;;18.09;92.65;101502.13;5071467;28;20276;-71
2022/08/05 05:56:19;;;;;;;9.33;5.43;;;;;;;18.09;92.47;101494.34;5071236;28;20764;-73
2022/08/05 05:58:47;;;;;;;8.50;5.00;;;;;;;18.05;92.10;101484.00;5071351;28;20216;-73
2022/08/05 06:01:13;;;;;;;9.87;5.07;;;;;;;18.03;91.73;101483.13;5071113;28;20217;-74
2022/08/05 06:03:42;;;;;;;7.13;4.80;;;;;;;18.02;92.60;101481.41;5071086;28;20590;-74
2022/08/05 06:06:07;;;;;;;8.50;4.33;;;;;;;17.96;92.39;101479.66;5066339;28;20897;-74
2022/08/05 06:08:33;;;;;;;8.43;4.87;;;;;;;17.95;92.83;101488.31;5071083;28;20184;-74
2022/08/05 06:10:59;;;;;;;8.43;4.87;;;;;;;17.93;92.85;101496.94;5071151;28;20200;-71
2022/08/05 06:13:24;;;;;;;9.13;4.90;;;;;;;17.92;92.35;101503.00;5071425;28;20538;-72
2022/08/05 06:15:50;;;;;;;10.67;6.13;;;;;;;17.95;92.39;101495.19;5070545;28;20185;-73
2022/08/05 06:18:15;;;;;;;8.13;5.43;;;;;;;17.95;92.56;101485.72;5070705;28;20664;-74
2022/08/05 06:20:41;;;;;;;6.67;5.13;;;;;;;17.92;92.67;101496.06;5066188;28;20660;-71
2022/08/05 06:23:06;;;;;;;8.13;5.10;;;;;;;17.95;92.66;101490.91;5070724;28;20299;-72
2022/08/05 06:25:32;;;;;;;7.87;5.30;;;;;;;17.96;92.79;101496.97;5067430;28;20228;-73
2022/08/05 06:27:57;;;;;;;6.43;5.50;;;;;;;18.04;92.38;101488.31;5085377;28;20176;-71
2022/08/05 06:30:25;;;;;;;7.30;5.27;;;;;;;18.11;92.20;101486.56;5098502;28;20194;-72
2022/08/05 06:32:51;;;;;;;9.63;5.53;;;;;;;18.17;92.14;101482.25;5101966;28;20295;-72
2022/08/05 06:35:18;;;;;;;6.80;5.40;;;;;;;18.25;92.14;101469.25;5090551;28;20226;-73
2022/08/05 06:37:43;;;;;;;11.43;5.60;;;;;;;18.29;92.31;101471.84;5090600;28;20196;-73
2022/08/05 06:40:10;;;;;;;9.83;4.90;;;;;;;18.37;91.93;101470.13;5090848;28;20196;-73
2022/08/05 06:42:36;;;;;;;9.17;5.73;;;;;;;18.39;92.33;101465.81;5090624;28;20315;-69
2022/08/05 06:45:02;;;;;;;7.10;4.63;;;;;;;18.44;91.39;101471.84;5100843;28;20184;-72
2022/08/05 06:47:27;;;;;;;6.37;4.90;;;;;;;18.52;91.62;101477.03;5110825;28;20205;-71
2022/08/05 06:49:53;;;;;;;8.83;5.03;;;;;;;18.55;91.45;101489.97;5088089;28;20193;-72
2022/08/05 06:52:18;;;;;;;6.50;5.10;;;;;;;18.62;91.10;101489.09;5077841;28;20279;-72
2022/08/05 06:54:44;;;;;;;7.13;5.93;;;;;;;18.60;91.00;101486.50;5069642;28;20680;-72
2022/08/05 06:57:13;;;;;;;8.50;5.33;;;;;;;18.65;90.80;101489.94;5069436;28;20223;-72
2022/08/05 06:59:39;;;;;;;7.73;5.00;;;;;;;18.74;89.93;101492.50;5070106;28;20238;-72
2022/08/05 07:02:04;;;;;;;7.80;5.03;;;;;;;18.78;90.07;101483.84;5076126;28;20225;-72
2022/08/05 07:04:30;;;;;;;5.40;4.50;;;;;;;18.88;89.25;101469.97;5089928;28;20271;-72
2022/08/05 07:06:55;;;;;;;8.80;5.10;;;;;;;19.04;88.61;101473.34;5090025;28;20673;-72
2022/08/05 07:09:20;;;;;;;9.03;5.03;;;;;;;19.06;88.98;101492.38;5078642;28;20218;-72
2022/08/05 07:11:46;;;;;;;7.73;5.23;;;;;;;19.13;88.55;101496.69;5089680;28;20209;-71
2022/08/05 07:16:59;;;;;;;6.53;4.10;;;;;;;19.19;88.94;101504.44;5089703;28;20191;-72
2022/08/05 07:19:27;;;;;;;6.47;4.27;;;;;;;19.18;88.28;101513.09;5088192;28;20184;-72
2022/08/05 07:21:53;;;;;;;7.30;4.40;;;;;;;19.06;86.88;101516.63;5069516;28;20267;-70
2022/08/05 07:24:19;;;;;;;6.37;4.67;;;;;;;19.08;87.91;101524.41;5069783;28;20215;-69
2022/08/05 07:26:45;;;;;;;5.63;4.80;;;;;;;19.06;88.64;101518.34;5069891;28;20185;-71
2022/08/05 07:29:11;;;;;;;6.90;4.97;;;;;;;19.05;89.16;101514.91;5090120;28;20555;-71
2022/08/05 07:31:37;;;;;;;7.73;4.57;;;;;;;18.97;88.38;101510.63;5104668;28;20267;-71
2022/08/05 07:34:03;;;;;;;6.37;5.07;;;;;;;18.98;88.13;101510.59;5110119;28;20264;-72
2022/08/05 07:36:29;;;;;;;8.60;4.80;;;;;;;18.99;88.34;101506.25;5103003;28;20184;-71
2022/08/05 07:38:54;;;;;;;6.80;4.80;;;;;;;18.94;88.58;101503.69;5089608;28;20207;-71
2022/08/05 07:41:22;;;;;;;7.70;5.83;;;;;;;18.88;88.66;101503.69;5089518;28;20211;-71
2022/08/05 07:43:48;;;;;;;7.00;5.30;;;;;;;18.87;88.16;101504.56;5077639;28;20943;-72
2022/08/05 07:46:14;;;;;;;7.27;4.93;;;;;;;18.92;88.48;101508.00;5092764;28;20266;-71
2022/08/05 07:48:40;;;;;;;11.73;5.27;;;;;;;18.92;89.02;101500.22;5101402;28;20920;-72
2022/08/05 07:51:06;;;;;;;7.40;5.10;;;;;;;18.90;89.04;101495.91;5109673;28;20214;-70
2022/08/05 07:53:31;;;;;;;6.03;4.77;;;;;;;18.83;89.63;101495.06;5109714;28;20180;-71
2022/08/05 07:55:57;;;;;;;7.00;5.40;;;;;;;18.88;89.25;101500.25;5109809;28;20184;-72
2022/08/05 07:58:22;;;;;;;7.03;5.77;;;;;;;18.90;89.34;101503.69;5109635;28;20271;-72
2022/08/05 08:00:48;;;;;;;10.73;5.63;;;;;;;18.94;89.18;101510.63;5109636;28;20270;-72
2022/08/05 08:03:14;;;;;;;9.80;5.83;;;;;;;18.91;89.22;101505.41;5109590;28;20226;-71
2022/08/05 08:05:42;;;;;;;6.87;5.23;;;;;;;18.94;88.72;101506.31;5109561;28;20179;-72
2022/08/05 08:08:09;;;;;;;7.93;5.17;;;;;;;18.96;88.75;101506.25;5111395;28;20607;-71
2022/08/05 08:10:34;;;;;;;6.37;5.20;;;;;;;18.92;88.60;101504.53;5113923;28;20179;-72
2022/08/05 08:13:00;;;;;;;8.10;4.97;;;;;;;18.90;88.55;101514.09;5110109;28;20204;-70
2022/08/05 08:15:25;;;;;;;7.33;5.30;;;;;;;18.87;89.39;101527.94;5093419;28;20177;-72
2022/08/05 08:17:51;;;;;;;7.97;5.40;;;;;;;18.86;89.35;101535.72;5093059;28;20627;-72
2022/08/05 08:20:16;;;;;;;7.60;5.13;;;;;;;18.81;89.91;101540.94;5093178;28;20619;-72
2022/08/05 08:22:42;;;;;;;8.97;5.43;;;;;;;18.78;89.97;101542.66;5074891;28;20223;-72
2022/08/05 08:25:07;;;;;;;7.47;5.03;;;;;;;18.79;90.18;101541.81;5093398;28;20230;-72
2022/08/05 08:27:33;;;;;;;9.13;5.60;;;;;;;18.81;90.00;101538.34;5093291;28;20208;-71
2022/08/05 08:29:58;;;;;;;9.53;5.27;;;;;;;18.83;88.89;101540.94;5102713;28;20608;-73
2022/08/05 08:32:24;;;;;;;6.90;5.10;;;;;;;18.98;89.03;101538.28;5113447;28;20295;-73
2022/08/05 08:34:50;;;;;;;7.43;5.40;;;;;;;18.94;88.97;101544.38;5113379;28;20211;-72
2022/08/05 08:37:16;;;;;;;9.00;5.70;;;;;;;18.89;89.58;101554.75;5099809;28;20196;-71
2022/08/05 08:39:42;;;;;;;6.47;4.63;;;;;;;18.85;88.62;101550.47;5093078;28;20188;-72
2022/08/05 08:42:09;;;;;;;7.60;5.53;;;;;;;18.86;89.56;101557.38;5093264;28;20258;-73
2022/08/05 08:44:35;;;;;;;5.40;5.00;;;;;;;18.92;88.79;101559.06;5093328;28;20196;-73
2022/08/05 08:47:02;;;;;;;6.87;5.67;;;;;;;18.90;90.17;101548.72;5093423;28;20266;-71
2022/08/05 08:49:32;;;;;;;8.50;5.33;;;;;;;18.97;90.05;101544.38;5101548;28;20203;-71
2022/08/05 08:52:03;;;;;;;6.93;5.77;;;;;;;18.94;90.10;101549.56;5110683;28;20268;-73
2022/08/05 08:54:29;;;;;;;7.57;5.63;;;;;;;18.94;91.15;101550.44;5113230;28;20545;-74
2022/08/05 08:56:55;;;;;;;7.50;5.37;;;;;;;18.88;90.82;101554.78;5113023;28;20233;-72
2022/08/05 08:59:22;;;;;;;8.93;5.93;;;;;;;18.86;89.63;101554.78;5113005;28;20191;-72
2022/08/05 09:01:47;;;;;;;6.63;5.60;;;;;;;18.88;89.61;101547.84;5112761;28;20211;-72
2022/08/05 09:04:13;;;;;;;7.87;5.57;;;;;;;18.89;89.70;101559.09;5112866;28;20237;-74
2022/08/05 09:06:38;;;;;;;8.30;5.63;;;;;;;18.88;89.13;101562.56;5112474;28;20222;-74
2022/08/05 09:09:04;;;;;;;6.23;5.47;;;;;;;18.97;90.11;101565.13;5094584;28;20390;-74
2022/08/05 09:11:32;;;;;;;10.67;6.20;;;;;;;18.96;89.48;101556.47;5094385;28;20261;-71
2022/08/05 09:13:59;;;;;;;6.37;5.30;;;;;;;19.00;89.57;101559.91;5094397;28;20192;-72
2022/08/05 09:16:25;;;;;;;7.77;5.87;;;;;;;18.99;90.01;101564.25;5112160;28;20713;-73
2022/08/05 09:18:51;;;;;;;7.90;5.27;;;;;;;19.01;88.84;101557.31;5111958;28;20194;-72
2022/08/05 09:21:17;;;;;;;7.67;6.10;;;;;;;19.05;89.58;101558.16;5112312;28;20199;-72
2022/08/05 09:23:44;;;;;;;8.63;5.70;;;;;;;19.08;89.53;101573.75;5112366;28;20685;-74
2022/08/05 09:26:15;;;;;;;6.97;6.27;;;;;;;19.11;90.25;101569.38;5112458;28;20175;-72
2022/08/05 09:28:40;;;;;;;10.73;5.83;;;;;;;19.13;89.89;101566.78;5103375;28;20280;-72
2022/08/05 09:31:11;;;;;;;8.87;6.10;;;;;;;19.17;88.60;101568.50;5100180;28;20292;-72
2022/08/05 09:33:51;;;;;;;6.57;5.23;;;;;;;19.22;88.46;101564.16;5091953;28;20546;-73
2022/08/05 09:36:17;;;;;;;7.97;5.60;;;;;;;19.35;89.12;101555.47;5091578;28;20696;-73
2022/08/05 09:39:03;;;;;;;8.10;5.73;;;;;;;19.47;87.75;101543.28;5091941;28;20176;-72
2022/08/05 09:41:29;;;;;;;7.07;5.20;;;;;;;19.50;88.90;101547.59;5058956;28;20208;-75
2022/08/05 09:43:54;;;;;;;7.17;5.00;;;;;;;19.49;88.26;101559.72;5091785;28;20215;-75
2022/08/05 09:46:29;;;;;;;8.43;5.17;;;;;;;19.52;88.64;101549.31;5091610;28;20240;-73
2022/08/05 09:49:00;;;;;;;7.60;5.17;;;;;;;19.62;88.56;101540.59;5099943;28;20206;-74
2022/08/05 09:51:31;;;;;;;9.10;5.27;;;;;;;19.62;88.18;101538.00;5104967;28;20211;-71
2022/08/05 09:53:58;;;;;;;6.47;5.27;;;;;;;19.60;87.63;101551.88;5108681;28;20638;-74
2022/08/05 09:56:29;;;;;;;6.07;4.90;;;;;;;19.58;87.70;101554.47;5111865;28;20194;-74
2022/08/05 09:59:15;;;;;;;6.47;4.63;;;;;;;19.58;88.48;101545.81;5112193;28;20180;-75
2022/08/05 10:01:42;;;;;;;6.97;5.10;;;;;;;19.55;88.79;101546.72;5112087;28;20211;-72
2022/08/05 10:04:13;;;;;;;5.67;4.50;;;;;;;19.54;87.94;101549.31;5111673;28;20215;-75
2022/08/05 10:06:54;;;;;;;7.67;4.77;;;;;;;19.59;87.96;101535.44;5111449;28;20187;-73
2022/08/05 10:09:22;;;;;;;6.03;3.90;;;;;;;19.57;86.71;101550.16;5111720;28;20179;-75
2022/08/05 10:11:49;;;;;;;8.10;4.30;;;;;;;19.60;86.17;101551.88;5111565;28;20202;-74
2022/08/05 10:14:27;;;;;;;8.13;4.10;;;;;;;19.60;86.92;101564.84;5111580;28;20184;-71
2022/08/05 10:16:57;;;;;;;5.63;3.23;;;;;;;19.44;86.68;101565.81;5111167;28;20313;-73
2022/08/05 10:19:24;;;;;;;4.20;3.80;;;;;;;19.45;86.35;101558.03;5111601;28;20287;-72
2022/08/05 10:21:50;;;;;;;5.10;3.47;;;;;;;19.46;85.86;101567.53;5111274;28;20673;-73
2022/08/05 10:24:20;;;;;;;4.93;3.83;;;;;;;19.40;86.80;101569.31;5111447;28;20183;-74
2022/08/05 10:26:47;;;;;;;5.03;4.07;;;;;;;19.46;86.91;101567.53;5111284;28;20186;-72
2022/08/05 10:29:13;;;;;;;6.97;4.00;;;;;;;19.47;85.31;101577.06;5101052;28;20214;-74
2022/08/05 10:31:39;;;;;;;5.77;3.60;;;;;;;19.42;85.32;101575.34;5094848;28;20276;-73
2022/08/05 10:34:06;;;;;;;5.83;4.30;;;;;;;19.40;85.40;101577.94;5090769;28;20184;-72
2022/08/05 10:36:32;;;;;;;3.40;2.40;;;;;;;19.32;83.36;101576.25;5090406;28;20644;-74
2022/08/05 10:39:28;;;;;;;3.20;2.40;;;;;;;19.36;82.85;101577.97;5090674;28;20246;-73
2022/08/05 10:42:06;;;;;;;3.20;2.13;;;;;;;19.40;82.24;101579.69;5089544;28;20297;-73
2022/08/05 10:44:33;;;;;;;3.90;1.83;;;;;;;19.28;81.08;101584.94;5066756;28;20230;-74
2022/08/05 10:47:09;;;;;;;4.10;2.33;;;;;;;19.28;82.53;101590.13;5090385;28;20241;-74
2022/08/05 10:49:59;;;;;;;4.20;2.03;;;;;;;19.30;82.67;101604.00;5090396;28;20195;-74
2022/08/05 10:52:43;;;;;;;2.97;1.70;;;;;;;19.27;81.04;101593.59;5091648;28;20245;-74
2022/08/05 10:55:12;;;;;;;3.70;1.70;;;;;;;19.32;79.57;101590.13;5090508;28;20199;-72
2022/08/05 10:57:40;;;;;;;3.57;1.40;;;;;;;19.32;79.75;101591.84;5090332;28;20183;-73
2022/08/05 11:00:31;;;;;;;3.63;1.67;;;;;;;19.36;77.80;101591.84;5090452;28;20562;-72
2022/08/05 11:03:06;;;;;;;2.37;1.70;;;;;;;19.35;78.13;101595.28;5085860;28;20236;-72
2022/08/05 11:05:33;;;;;;;2.90;1.87;;;;;;;19.36;79.42;101596.16;5090934;28;20209;-73
2022/08/05 11:08:03;;;;;;;2.23;1.80;;;;;;;19.31;79.28;101608.31;5090625;28;20914;-73
2022/08/05 11:10:30;;;;;;;1.93;1.57;;;;;;;19.28;78.15;101616.97;5091301;28;20268;-73
2022/08/05 11:12:57;;;;;;;4.07;1.67;;;;;;;19.30;78.44;101611.78;5090893;28;20212;-73
2022/08/05 11:15:27;;;;;;;3.50;2.07;;;;;;;19.34;79.15;101614.34;5092144;28;20188;-73
2022/08/05 11:18:04;;;;;;;4.43;2.23;;;;;;;19.36;80.81;101625.63;5090167;28;20203;-73
2022/08/05 11:20:39;;;;;;;3.07;2.10;;;;;;;19.30;81.55;101632.56;5090211;28;20192;-72
2022/08/05 11:23:40;;;;;;;4.73;2.60;;;;;;;19.24;81.13;101629.97;5089987;28;20203;-73
2022/08/05 11:26:15;;;;;;;2.53;2.20;;;;;;;19.09;82.91;101635.19;5089866;28;20192;-72
2022/08/05 11:28:43;;;;;;;4.70;2.77;;;;;;;19.08;83.56;101649.91;5089652;28;20261;-72